| Date | Time | Temp. (oF) | Dew Point (oF) | Rel. Hum. (%) | Press. (in.) | Wind Dir. | Wind Speed (mph) | Hourly Rainfall (in.) |
|
|---|---|---|---|---|---|---|---|---|---|
| 1 | 01/31 | 00:00 | 34 | 20 | 58 | 30.22 | SSW | 4 | 0.00 |
| 2 | 01/30 | 23:00 | 32 | 20 | 61 | 30.24 | SSE | 3 | 0.00 |
| 3 | 01/30 | 22:00 | 31 | 20 | 66 | 30.27 | SSE | 3 | 0.00 |
| 4 | 01/30 | 21:00 | 30 | 19 | 64 | 30.29 | SE | 0 | 0.00 |
| 5 | 01/30 | 20:00 | 31 | 18 | 59 | 30.30 | SSE | 2 | 0.00 |
| 6 | 01/30 | 19:00 | 32 | 18 | 57 | 30.31 | SE | 0 | 0.00 |
| 7 | 01/30 | 18:00 | 35 | 17 | 49 | 30.30 | SSW | 2 | 0.00 |
| 8 | 01/30 | 17:00 | 37 | 17 | 44 | 30.30 | SW | 4 | 0.00 |
| 9 | 01/30 | 16:00 | 38 | 15 | 39 | 30.27 | WSW | 3 | 0.00 |
| 10 | 01/30 | 15:00 | 38 | 18 | 45 | 30.27 | W | 3 | 0.00 |
| 11 | 01/30 | 14:00 | 38 | 18 | 46 | 30.29 | WSW | 5 | 0.00 |
| 12 | 01/30 | 13:00 | 38 | 19 | 47 | 30.34 | WSW | 5 | 0.00 |
| 13 | 01/30 | 12:00 | 36 | 20 | 53 | 30.36 | SW | 6 | 0.00 |
| 14 | 01/30 | 11:00 | 35 | 20 | 55 | 30.38 | WSW | 4 | 0.00 |
| 15 | 01/30 | 10:00 | 33 | 18 | 55 | 30.37 | W | 6 | 0.00 |
| 16 | 01/30 | 09:00 | 31 | 17 | 57 | 30.35 | SW | 6 | 0.00 |
| 17 | 01/30 | 08:00 | 28 | 16 | 62 | 30.32 | N | 7 | 0.00 |
| 18 | 01/30 | 07:00 | 28 | 17 | 63 | 30.30 | WSW | 1 | 0.00 |
| 19 | 01/30 | 06:00 | 29 | 17 | 62 | 30.27 | SSW | 7 | 0.00 |
| 20 | 01/30 | 05:00 | 30 | 18 | 62 | 30.22 | W | 10 | 0.00 |
| 21 | 01/30 | 04:00 | 30 | 19 | 65 | 30.20 | WSW | 13 | 0.00 |
| 22 | 01/30 | 03:00 | 32 | 20 | 61 | 30.18 | SSW | 10 | 0.00 |
| 23 | 01/30 | 02:00 | 32 | 22 | 69 | 30.16 | WSW | 6 | 0.00 |
| 24 | 01/30 | 01:00 | 32 | 25 | 78 | 30.14 | WSW | 3 | 0.00 |